Time;durP1;ratioP1;P1;durP2;ratioP2;P2;SDS_P1;SDS_P2;PMS_P1;PMS_P2;Temp;Humidity;BMP_temperature;BMP_pressure;BME280_temperature;BME280_humidity;BME280_pressure;Samples;Min_cycle;Max_cycle;Signal;HPM_P1;HPM_P2
2023/12/21 00:01:08;;;;;;;;;;;7.70;94.70;;;;;;6247642;23;20251;-82
2023/12/21 00:03:33;;;;;;;;;;;7.70;94.70;;;;;;6247318;23;19978;-82
2023/12/21 00:05:59;;;;;;;;;;;7.70;94.70;;;;;;6247441;23;19930;-82
2023/12/21 00:08:24;;;;;;;;;;;7.70;94.70;;;;;;6247112;23;19948;-81
2023/12/21 00:10:50;;;;;;;;;;;7.70;94.70;;;;;;6245995;23;20184;-81
2023/12/21 00:13:16;;;;;;;;;;;7.80;94.70;;;;;;6247890;23;19967;-81
2023/12/21 00:15:41;;;;;;;;;;;7.80;94.70;;;;;;6247632;23;20309;-80
2023/12/21 00:18:07;;;;;;;;;;;7.80;94.70;;;;;;6219823;23;19907;-81
2023/12/21 00:20:32;;;;;;;;;;;7.80;94.60;;;;;;6246338;23;19954;-80
2023/12/21 00:22:58;;;;;;;;;;;7.80;94.50;;;;;;6246678;23;19907;-81
2023/12/21 00:25:23;;;;;;;;;;;7.80;94.40;;;;;;6219353;23;19899;-80
2023/12/21 00:27:49;;;;;;;;;;;7.80;94.40;;;;;;6246339;23;19922;-80
2023/12/21 00:30:15;;;;;;;;;;;7.80;94.20;;;;;;6219527;23;19978;-81
2023/12/21 00:32:40;;;;;;;;;;;7.80;94.20;;;;;;6220034;23;19984;-81
2023/12/21 00:35:06;;;;;;;;;;;7.80;94.00;;;;;;6246318;23;19906;-81
2023/12/21 00:37:36;;;;;;;;;;;7.80;93.90;;;;;;6246695;23;19918;-81
2023/12/21 00:40:05;;;;;;;;;;;7.80;93.90;;;;;;6246725;23;19912;-81
2023/12/21 00:42:32;;;;;;;;;;;7.80;93.80;;;;;;6246719;23;19982;-81
2023/12/21 00:44:58;;;;;;;;;;;7.80;93.70;;;;;;6247117;23;19900;-81
2023/12/21 00:47:23;;;;;;;;;;;7.80;93.80;;;;;;6246642;23;19907;-80
2023/12/21 00:49:49;;;;;;;;;;;7.80;93.70;;;;;;6246762;23;19923;-81
2023/12/21 00:52:14;;;;;;;;;;;7.70;93.70;;;;;;6246132;23;19938;-81
2023/12/21 00:54:40;;;;;;;;;;;7.70;93.80;;;;;;6246064;23;20271;-81
2023/12/21 00:57:06;;;;;;;;;;;7.70;93.90;;;;;;6246339;23;19906;-81
2023/12/21 00:59:31;;;;;;;;;;;7.70;93.80;;;;;;6246830;23;19934;-81
2023/12/21 01:01:57;;;;;;;;;;;7.70;93.90;;;;;;6241559;23;20014;-81
2023/12/21 01:04:24;;;;;;;;;;;7.60;93.90;;;;;;6242763;23;19903;-81
2023/12/21 01:06:49;;;;;;;;;;;7.60;93.80;;;;;;6244114;23;19900;-80
2023/12/21 01:09:15;;;;;;;;;;;7.60;93.80;;;;;;6245284;23;20274;-80
2023/12/21 01:11:41;;;;;;;;;;;7.60;93.80;;;;;;6245724;23;19931;-80
2023/12/21 01:14:06;;;;;;;;;;;7.60;93.60;;;;;;6246128;23;19946;-81
2023/12/21 01:16:32;;;;;;;;;;;7.60;93.60;;;;;;6246247;23;20210;-81
2023/12/21 01:18:58;;;;;;;;;;;7.60;93.50;;;;;;6246030;23;19946;-80
2023/12/21 01:21:24;;;;;;;;;;;7.60;93.50;;;;;;6244475;23;19911;-80
2023/12/21 01:23:50;;;;;;;;;;;7.60;93.40;;;;;;6246339;23;19910;-80
2023/12/21 01:26:16;;;;;;;;;;;7.50;93.30;;;;;;6246208;23;19904;-80
2023/12/21 01:28:41;;;;;;;;;;;7.50;93.40;;;;;;6246317;23;19907;-80
2023/12/21 01:31:08;;;;;;;;;;;7.40;93.50;;;;;;6246453;23;19906;-80
2023/12/21 01:33:33;;;;;;;;;;;7.40;93.50;;;;;;6246472;23;19900;-80
2023/12/21 01:35:59;;;;;;;;;;;7.30;93.50;;;;;;6246368;23;19954;-80
2023/12/21 01:38:25;;;;;;;;;;;7.30;93.50;;;;;;6246310;23;20325;-81
2023/12/21 01:40:50;;;;;;;;;;;7.30;93.60;;;;;;6219411;23;19908;-81
2023/12/21 01:43:16;;;;;;;;;;;7.30;93.70;;;;;;6219126;23;20236;-81
2023/12/21 01:45:41;;;;;;;;;;;7.30;93.60;;;;;;6219015;23;20317;-81
2023/12/21 01:48:10;;;;;;;;;;;7.30;93.60;;;;;;6246069;23;20002;-81
2023/12/21 01:50:36;;;;;;;;;;;7.40;93.90;;;;;;6245956;23;19899;-80
2023/12/21 01:53:02;;;;;;;;;;;7.40;93.70;;;;;;6245958;23;19953;-80
2023/12/21 01:55:27;;;;;;;;;;;7.40;93.70;;;;;;6245965;23;19900;-81
2023/12/21 01:57:53;;;;;;;;;;;7.40;93.70;;;;;;6245784;23;20006;-80
2023/12/21 02:00:19;;;;;;;;;;;7.40;93.70;;;;;;6245575;23;19910;-80
2023/12/21 02:02:44;;;;;;;;;;;7.40;93.70;;;;;;6245782;23;19950;-81
2023/12/21 02:05:10;;;;;;;;;;;7.40;93.70;;;;;;6246309;23;19899;-81
2023/12/21 02:07:36;;;;;;;;;;;7.40;93.70;;;;;;6246790;23;19899;-81
2023/12/21 02:10:02;;;;;;;;;;;7.40;93.70;;;;;;6219704;23;19910;-82
2023/12/21 02:12:27;;;;;;;;;;;7.40;93.60;;;;;;6246595;23;19986;-82
2023/12/21 02:14:53;;;;;;;;;;;7.40;93.50;;;;;;6246823;23;19945;-82
2023/12/21 02:17:19;;;;;;;;;;;7.40;93.50;;;;;;6246230;23;19903;-82
2023/12/21 02:19:46;;;;;;;;;;;7.40;93.60;;;;;;6246070;23;19904;-82
2023/12/21 02:22:13;;;;;;;;;;;7.40;93.60;;;;;;6246484;23;19919;-82
2023/12/21 02:24:39;;;;;;;;;;;7.40;93.50;;;;;;6221458;23;19899;-82
2023/12/21 02:27:04;;;;;;;;;;;7.40;93.40;;;;;;6248659;23;20293;-83
2023/12/21 02:29:30;;;;;;;;;;;7.40;93.30;;;;;;6248645;23;20272;-81
2023/12/21 02:31:56;;;;;;;;;;;7.40;93.30;;;;;;6248690;23;19973;-81
2023/12/21 02:34:21;;;;;;;;;;;7.40;93.20;;;;;;6248426;23;19927;-82
2023/12/21 02:36:47;;;;;;;;;;;7.40;93.20;;;;;;6248487;23;19922;-82
2023/12/21 02:39:13;;;;;;;;;;;7.40;93.20;;;;;;6247876;23;19900;-81
2023/12/21 02:41:38;;;;;;;;;;;7.40;93.00;;;;;;6248220;23;19903;-82
2023/12/21 02:44:04;;;;;;;;;;;7.40;92.90;;;;;;6248329;23;19906;-82
2023/12/21 02:46:29;;;;;;;;;;;7.50;92.90;;;;;;6248187;23;19899;-81
2023/12/21 02:48:55;;;;;;;;;;;7.50;92.80;;;;;;6248235;23;19946;-82
2023/12/21 02:51:21;;;;;;;;;;;7.50;92.80;;;;;;6221417;23;19900;-82
2023/12/21 02:53:46;;;;;;;;;;;7.40;92.80;;;;;;6247824;23;19930;-81
2023/12/21 02:56:12;;;;;;;;;;;7.40;93.00;;;;;;6248147;23;19904;-81
2023/12/21 02:58:37;;;;;;;;;;;7.40;93.30;;;;;;6247817;23;19970;-81
2023/12/21 03:01:03;;;;;;;;;;;7.40;93.10;;;;;;6220914;23;19903;-82
2023/12/21 03:03:28;;;;;;;;;;;7.40;93.00;;;;;;6247604;23;20233;-81
2023/12/21 03:05:54;;;;;;;;;;;7.40;93.00;;;;;;6248297;23;20225;-82
2023/12/21 03:08:19;;;;;;;;;;;7.40;92.80;;;;;;6248043;23;19967;-82
2023/12/21 03:10:45;;;;;;;;;;;7.50;92.80;;;;;;6247549;23;19903;-81
2023/12/21 03:13:11;;;;;;;;;;;7.50;92.70;;;;;;6247675;23;20295;-81
2023/12/21 03:15:36;;;;;;;;;;;7.50;92.60;;;;;;6248035;23;19983;-81
2023/12/21 03:18:02;;;;;;;;;;;7.50;92.50;;;;;;6247659;23;19927;-81
2023/12/21 03:20:27;;;;;;;;;;;7.50;92.40;;;;;;6247516;23;20306;-81
2023/12/21 03:22:53;;;;;;;;;;;7.40;92.50;;;;;;6247685;23;19937;-81
2023/12/21 03:25:18;;;;;;;;;;;7.40;92.60;;;;;;6247487;23;19904;-81
2023/12/21 03:27:44;;;;;;;;;;;7.50;92.60;;;;;;6247499;23;19927;-80
2023/12/21 03:30:10;;;;;;;;;;;7.40;92.40;;;;;;6247140;23;20525;-80
2023/12/21 03:32:36;;;;;;;;;;;7.40;92.30;;;;;;6247443;23;19899;-82
2023/12/21 03:35:03;;;;;;;;;;;7.40;92.50;;;;;;6247177;23;19900;-81
2023/12/21 03:37:29;;;;;;;;;;;7.40;92.50;;;;;;6247400;23;19907;-81
2023/12/21 03:39:57;;;;;;;;;;;7.40;92.50;;;;;;6247322;23;19908;-81
2023/12/21 03:42:23;;;;;;;;;;;7.40;92.50;;;;;;6247565;23;19899;-80
2023/12/21 03:44:49;;;;;;;;;;;7.40;92.50;;;;;;6247643;23;19899;-81
2023/12/21 03:47:14;;;;;;;;;;;7.40;92.60;;;;;;6247534;23;19900;-80
2023/12/21 03:49:40;;;;;;;;;;;7.40;92.80;;;;;;6247563;23;19986;-80
2023/12/21 03:52:06;;;;;;;;;;;7.40;92.60;;;;;;6245592;23;20261;-82
2023/12/21 03:54:31;;;;;;;;;;;7.30;92.50;;;;;;6247438;23;19899;-82
2023/12/21 03:56:57;;;;;;;;;;;7.30;92.50;;;;;;6247379;23;19994;-81
2023/12/21 03:59:22;;;;;;;;;;;7.30;92.60;;;;;;6247343;23;19899;-82
2023/12/21 04:01:48;;;;;;;;;;;7.30;92.70;;;;;;6246869;23;19943;-81
2023/12/21 04:04:14;;;;;;;;;;;7.20;92.70;;;;;;6247162;23;19899;-82
2023/12/21 04:06:39;;;;;;;;;;;7.20;92.70;;;;;;6247096;23;19900;-81
2023/12/21 04:09:05;;;;;;;;;;;7.20;92.70;;;;;;6246926;23;19900;-79
2023/12/21 04:11:31;;;;;;;;;;;7.10;92.70;;;;;;6246771;23;19906;-79
2023/12/21 04:13:57;;;;;;;;;;;7.20;92.80;;;;;;6246949;23;19900;-78
2023/12/21 04:16:22;;;;;;;;;;;7.10;92.70;;;;;;6246486;23;19904;-78
2023/12/21 04:18:48;;;;;;;;;;;7.20;92.80;;;;;;6246878;23;19903;-78
2023/12/21 04:21:13;;;;;;;;;;;7.20;92.70;;;;;;6246804;23;19909;-79
2023/12/21 04:23:39;;;;;;;;;;;7.20;92.80;;;;;;6246908;23;20067;-80
2023/12/21 04:26:05;;;;;;;;;;;7.20;92.70;;;;;;6219771;23;20367;-80
2023/12/21 04:28:30;;;;;;;;;;;7.20;92.70;;;;;;6246808;23;19905;-80
2023/12/21 04:30:56;;;;;;;;;;;7.20;92.70;;;;;;6247114;23;19900;-83
2023/12/21 04:33:21;;;;;;;;;;;7.20;92.80;;;;;;6247667;23;19903;-82
2023/12/21 04:35:47;;;;;;;;;;;7.20;92.80;;;;;;6246881;23;19975;-83
2023/12/21 04:38:13;;;;;;;;;;;7.20;92.80;;;;;;6247232;23;19899;-83
2023/12/21 04:40:38;;;;;;;;;;;7.20;92.90;;;;;;6244946;23;20042;-83
2023/12/21 04:43:06;;;;;;;;;;;7.20;92.90;;;;;;6246480;23;19899;-80
2023/12/21 04:45:31;;;;;;;;;;;7.20;92.80;;;;;;6246321;23;19978;-83
2023/12/21 04:47:57;;;;;;;;;;;7.10;92.70;;;;;;6246501;23;19927;-81
2023/12/21 04:50:22;;;;;;;;;;;7.10;92.80;;;;;;6246646;23;19907;-81
2023/12/21 04:52:49;;;;;;;;;;;7.10;92.80;;;;;;6246475;23;19899;-81
2023/12/21 04:55:15;;;;;;;;;;;7.10;92.80;;;;;;6246264;23;19900;-82
2023/12/21 04:57:41;;;;;;;;;;;7.10;92.80;;;;;;6246613;23;19954;-82
2023/12/21 05:00:07;;;;;;;;;;;7.10;92.70;;;;;;6246261;23;19903;-83
2023/12/21 05:02:33;;;;;;;;;;;7.10;92.70;;;;;;6246767;23;19899;-82
2023/12/21 05:04:59;;;;;;;;;;;7.10;92.50;;;;;;6246168;23;19969;-90
2023/12/21 05:07:25;;;;;;;;;;;7.00;92.60;;;;;;6246972;23;19899;-90
2023/12/21 05:09:50;;;;;;;;;;;7.00;92.60;;;;;;6246863;23;19900;-90
2023/12/21 05:12:16;;;;;;;;;;;6.90;92.60;;;;;;6246664;23;20198;-90
2023/12/21 05:14:41;;;;;;;;;;;6.90;92.60;;;;;;6247321;23;19903;-90
2023/12/21 05:17:07;;;;;;;;;;;6.80;92.60;;;;;;6246641;23;19906;-88
2023/12/21 05:19:32;;;;;;;;;;;6.80;92.70;;;;;;6251584;23;19949;-91
2023/12/21 05:21:58;;;;;;;;;;;6.80;92.70;;;;;;6250758;23;19907;-89
2023/12/21 05:24:24;;;;;;;;;;;6.80;92.80;;;;;;6249484;23;19915;-89
2023/12/21 05:26:49;;;;;;;;;;;6.70;92.60;;;;;;6247363;23;19978;-88
2023/12/21 05:29:15;;;;;;;;;;;6.70;92.70;;;;;;6246887;23;19899;-88
2023/12/21 05:31:42;;;;;;;;;;;6.70;92.80;;;;;;6247125;23;19899;-88
2023/12/21 05:34:08;;;;;;;;;;;6.60;92.80;;;;;;6247355;23;19978;-89
2023/12/21 05:36:33;;;;;;;;;;;6.60;92.80;;;;;;6219550;23;19900;-89
2023/12/21 05:39:00;;;;;;;;;;;6.60;92.90;;;;;;6245877;23;20357;-89
2023/12/21 05:41:25;;;;;;;;;;;6.50;92.90;;;;;;6245917;23;19911;-88
2023/12/21 05:43:51;;;;;;;;;;;6.50;93.00;;;;;;6218917;23;19983;-89
2023/12/21 05:46:17;;;;;;;;;;;6.50;93.00;;;;;;6251445;23;19943;-88
2023/12/21 05:48:42;;;;;;;;;;;6.50;93.10;;;;;;6250278;23;20203;-83
2023/12/21 05:51:08;;;;;;;;;;;6.50;93.10;;;;;;6249815;23;19915;-89
2023/12/21 05:53:33;;;;;;;;;;;6.40;93.10;;;;;;6250761;23;19904;-89
2023/12/21 05:55:59;;;;;;;;;;;6.40;93.00;;;;;;6248566;23;20407;-91
2023/12/21 05:58:25;;;;;;;;;;;6.40;93.00;;;;;;6247261;23;19906;-91
2023/12/21 06:00:50;;;;;;;;;;;6.40;93.00;;;;;;6248386;23;19904;-91
2023/12/21 06:03:16;;;;;;;;;;;6.40;93.00;;;;;;6247282;23;19930;-88
2023/12/21 06:05:41;;;;;;;;;;;6.40;93.00;;;;;;6245946;23;20207;-87
2023/12/21 06:08:07;;;;;;;;;;;6.30;93.00;;;;;;6219178;23;19906;-86
2023/12/21 06:10:33;;;;;;;;;;;6.30;93.20;;;;;;6245610;23;20329;-88
2023/12/21 06:12:59;;;;;;;;;;;6.30;93.10;;;;;;6219779;23;19905;-88
2023/12/21 06:15:25;;;;;;;;;;;6.30;93.10;;;;;;6245363;23;19907;-87
2023/12/21 06:17:51;;;;;;;;;;;6.30;93.00;;;;;;6245177;23;19899;-82
2023/12/21 06:20:17;;;;;;;;;;;6.40;93.00;;;;;;6244278;23;19903;-82
2023/12/21 06:22:42;;;;;;;;;;;6.40;93.00;;;;;;6245914;23;19918;-83
2023/12/21 06:25:08;;;;;;;;;;;6.40;93.00;;;;;;6245810;23;19899;-87
2023/12/21 06:27:33;;;;;;;;;;;6.40;92.90;;;;;;6245942;23;19900;-87
2023/12/21 06:29:59;;;;;;;;;;;6.40;92.90;;;;;;6245729;23;19900;-86
2023/12/21 06:32:24;;;;;;;;;;;6.40;92.90;;;;;;6246765;23;19947;-88
2023/12/21 06:34:50;;;;;;;;;;;6.40;92.90;;;;;;6245937;23;19899;-88
2023/12/21 06:37:16;;;;;;;;;;;6.40;92.70;;;;;;6246540;23;19900;-87
2023/12/21 06:39:41;;;;;;;;;;;6.40;93.00;;;;;;6246298;23;20318;-87
2023/12/21 06:42:07;;;;;;;;;;;6.40;92.90;;;;;;6246666;23;19906;-88
2023/12/21 06:44:33;;;;;;;;;;;6.50;92.70;;;;;;6246586;23;19906;-87
2023/12/21 06:46:58;;;;;;;;;;;6.40;92.60;;;;;;6219282;23;19899;-87
2023/12/21 06:49:24;;;;;;;;;;;6.40;92.70;;;;;;6246391;23;19978;-87
2023/12/21 06:51:49;;;;;;;;;;;6.40;92.60;;;;;;6244767;23;19900;-87
2023/12/21 06:54:15;;;;;;;;;;;6.40;92.60;;;;;;6219171;23;19972;-88
2023/12/21 06:56:40;;;;;;;;;;;6.40;92.60;;;;;;6246324;23;19899;-89
2023/12/21 06:59:06;;;;;;;;;;;6.40;92.70;;;;;;6219302;23;19931;-88
2023/12/21 07:01:32;;;;;;;;;;;6.40;92.80;;;;;;6219393;23;19908;-86
2023/12/21 07:03:58;;;;;;;;;;;6.40;92.70;;;;;;6246634;23;19903;-86
2023/12/21 07:06:25;;;;;;;;;;;6.40;92.80;;;;;;6246181;23;20013;-87
2023/12/21 07:08:51;;;;;;;;;;;6.50;92.70;;;;;;6219776;23;19970;-87
2023/12/21 07:11:17;;;;;;;;;;;6.40;92.70;;;;;;6248169;23;19899;-87
2023/12/21 07:13:43;;;;;;;;;;;6.40;92.60;;;;;;6247140;23;19904;-89
2023/12/21 07:16:08;;;;;;;;;;;6.40;92.60;;;;;;6221851;23;19983;-89
2023/12/21 07:18:34;;;;;;;;;;;6.50;92.70;;;;;;6249676;23;19938;-90
2023/12/21 07:20:59;;;;;;;;;;;6.50;92.60;;;;;;6222586;23;19907;-91
2023/12/21 07:23:25;;;;;;;;;;;6.50;92.70;;;;;;6221211;23;19908;-89
2023/12/21 07:25:50;;;;;;;;;;;6.50;92.70;;;;;;6248950;23;19900;-89
2023/12/21 07:28:16;;;;;;;;;;;6.60;95.20;;;;;;6248041;23;19900;-88
2023/12/21 07:30:44;;;;;;;;;;;6.70;93.80;;;;;;6247450;23;19904;-87
2023/12/21 07:33:10;;;;;;;;;;;6.80;93.00;;;;;;6247745;23;19899;-87
2023/12/21 07:35:37;;;;;;;;;;;6.80;92.50;;;;;;6248405;23;19906;-86
2023/12/21 07:38:03;;;;;;;;;;;6.80;92.50;;;;;;6220738;23;19998;-85
2023/12/21 07:40:28;;;;;;;;;;;6.80;92.50;;;;;;6248624;23;19923;-86
2023/12/21 07:42:54;;;;;;;;;;;6.80;92.40;;;;;;6247852;23;19922;-87
2023/12/21 07:45:19;;;;;;;;;;;6.80;92.30;;;;;;6245718;23;19906;-85
2023/12/21 07:47:45;;;;;;;;;;;6.80;92.30;;;;;;6245283;23;19923;-85
2023/12/21 07:50:10;;;;;;;;;;;6.80;92.20;;;;;;6245509;23;19907;-85
2023/12/21 07:52:37;;;;;;;;;;;6.80;92.20;;;;;;6219746;23;19931;-85
2023/12/21 07:55:04;;;;;;;;;;;6.90;92.20;;;;;;6220816;23;19907;-85
2023/12/21 07:57:30;;;;;;;;;;;6.90;92.20;;;;;;6246199;23;19899;-85
2023/12/21 07:59:56;;;;;;;;;;;6.90;92.10;;;;;;6247131;23;19907;-84
2023/12/21 08:02:21;;;;;;;;;;;6.90;92.00;;;;;;6246579;23;20055;-84
2023/12/21 08:04:47;;;;;;;;;;;7.00;92.00;;;;;;6220408;23;19938;-84
2023/12/21 08:07:12;;;;;;;;;;;7.00;92.00;;;;;;6220543;23;19903;-84
2023/12/21 08:09:38;;;;;;;;;;;7.00;92.00;;;;;;6247147;23;20370;-84
2023/12/21 08:12:04;;;;;;;;;;;7.10;92.00;;;;;;6247213;23;19906;-85
2023/12/21 08:14:31;;;;;;;;;;;7.20;92.00;;;;;;6247477;23;20337;-85
2023/12/21 08:16:59;;;;;;;;;;;7.20;92.20;;;;;;6246137;23;19908;-84
2023/12/21 08:19:25;;;;;;;;;;;7.30;92.30;;;;;;6220664;23;19965;-84
2023/12/21 08:21:51;;;;;;;;;;;7.40;92.40;;;;;;6246604;23;20409;-84
2023/12/21 08:24:16;;;;;;;;;;;7.50;92.40;;;;;;6247391;23;20314;-84
2023/12/21 08:26:42;;;;;;;;;;;7.60;92.60;;;;;;6247262;23;20373;-84
2023/12/21 08:29:07;;;;;;;;;;;7.60;92.60;;;;;;6247060;23;19903;-85
2023/12/21 08:31:33;;;;;;;;;;;7.70;92.60;;;;;;6245690;23;19899;-84
2023/12/21 08:33:59;;;;;;;;;;;7.70;92.50;;;;;;6219915;23;19899;-85
2023/12/21 08:36:24;;;;;;;;;;;7.70;92.40;;;;;;6220170;23;19935;-84
2023/12/21 08:38:50;;;;;;;;;;;7.80;92.40;;;;;;6219746;23;19899;-86
2023/12/21 08:41:16;;;;;;;;;;;7.90;92.40;;;;;;6219452;23;19914;-85
2023/12/21 08:43:42;;;;;;;;;;;7.90;92.30;;;;;;6219953;23;19900;-84
2023/12/21 08:46:07;;;;;;;;;;;8.00;92.80;;;;;;6217963;23;19986;-83
2023/12/21 08:48:33;;;;;;;;;;;8.10;92.60;;;;;;6218582;23;19938;-84
2023/12/21 08:50:59;;;;;;;;;;;8.20;92.60;;;;;;6246608;23;19899;-85
2023/12/21 08:53:24;;;;;;;;;;;8.20;92.50;;;;;;6247053;23;19903;-86
2023/12/21 08:55:50;;;;;;;;;;;8.30;92.40;;;;;;6247060;23;19900;-86
2023/12/21 08:58:15;;;;;;;;;;;8.30;92.30;;;;;;6246883;23;20294;-85
2023/12/21 09:00:41;;;;;;;;;;;8.40;92.10;;;;;;6220614;23;19903;-86
2023/12/21 09:03:06;;;;;;;;;;;8.40;92.20;;;;;;6247387;23;20025;-86
2023/12/21 09:05:32;;;;;;;;;;;8.50;92.20;;;;;;6247070;23;20322;-85
2023/12/21 09:07:58;;;;;;;;;;;8.50;92.10;;;;;;6220228;23;19974;-85
2023/12/21 09:10:23;;;;;;;;;;;8.50;92.20;;;;;;6246156;23;19906;-85
2023/12/21 09:12:49;;;;;;;;;;;8.60;92.20;;;;;;6245311;23;19907;-84
2023/12/21 09:15:14;;;;;;;;;;;8.60;92.00;;;;;;6246727;23;20277;-85
2023/12/21 09:17:40;;;;;;;;;;;8.60;92.10;;;;;;6246873;23;19900;-87
2023/12/21 09:20:08;;;;;;;;;;;8.70;92.20;;;;;;6245195;23;19911;-88
2023/12/21 09:22:33;;;;;;;;;;;8.70;92.20;;;;;;6220237;23;19907;-88
2023/12/21 09:25:01;;;;;;;;;;;8.80;92.20;;;;;;6247836;23;19906;-88
2023/12/21 09:27:28;;;;;;;;;;;8.90;92.20;;;;;;6248977;23;19899;-88
2023/12/21 09:29:54;;;;;;;;;;;8.90;92.20;;;;;;6246293;23;19934;-89
2023/12/21 09:32:20;;;;;;;;;;;9.00;92.10;;;;;;6247286;23;19899;-87
2023/12/21 09:34:47;;;;;;;;;;;9.20;92.10;;;;;;6245682;23;20318;-88
2023/12/21 09:37:13;;;;;;;;;;;9.30;92.00;;;;;;6247300;23;19907;-87
2023/12/21 09:39:38;;;;;;;;;;;9.30;91.80;;;;;;6246238;23;19904;-87
2023/12/21 09:42:05;;;;;;;;;;;9.40;91.60;;;;;;6244956;23;19930;-85
2023/12/21 09:44:31;;;;;;;;;;;9.40;91.50;;;;;;6246710;23;19954;-85
2023/12/21 09:46:56;;;;;;;;;;;9.50;91.50;;;;;;6244388;23;19900;-83
2023/12/21 09:49:22;;;;;;;;;;;9.60;91.60;;;;;;6246800;23;20190;-83
2023/12/21 09:51:49;;;;;;;;;;;9.60;91.60;;;;;;6246134;23;20326;-85
2023/12/21 09:54:16;;;;;;;;;;;9.80;91.60;;;;;;6246399;23;19977;-85
2023/12/21 09:56:43;;;;;;;;;;;9.90;91.30;;;;;;6246448;23;19961;-85
2023/12/21 09:59:10;;;;;;;;;;;10.00;91.30;;;;;;6246734;23;19900;-86
2023/12/21 10:01:36;;;;;;;;;;;10.10;91.30;;;;;;6245655;23;19951;-86
2023/12/21 10:04:01;;;;;;;;;;;10.20;91.10;;;;;;6218990;23;19904;-84
2023/12/21 10:06:30;;;;;;;;;;;10.30;91.00;;;;;;6246257;23;19895;-85
2023/12/21 10:08:55;;;;;;;;;;;10.30;90.90;;;;;;6245293;23;19966;-86
2023/12/21 10:11:21;;;;;;;;;;;10.40;90.90;;;;;;6244912;23;20286;-84
2023/12/21 10:13:47;;;;;;;;;;;10.50;90.90;;;;;;6246574;23;19938;-82
2023/12/21 10:16:13;;;;;;;;;;;10.60;90.70;;;;;;6246147;23;19958;-84
2023/12/21 10:18:39;;;;;;;;;;;10.70;91.30;;;;;;6244044;23;19907;-82
2023/12/21 10:21:05;;;;;;;;;;;10.90;91.60;;;;;;6245827;23;20229;-81
2023/12/21 10:23:31;;;;;;;;;;;11.00;90.60;;;;;;6245917;23;19982;-81
2023/12/21 10:25:58;;;;;;;;;;;11.10;90.80;;;;;;6246262;23;19906;-81
2023/12/21 10:28:24;;;;;;;;;;;11.20;90.20;;;;;;6245170;23;20400;-81
2023/12/21 10:30:58;;;;;;;;;;;11.30;90.20;;;;;;6246154;23;19940;-81
2023/12/21 10:33:27;;;;;;;;;;;11.40;90.20;;;;;;6245341;23;19906;-82
2023/12/21 10:35:53;;;;;;;;;;;11.50;89.70;;;;;;6216849;23;20349;-83
2023/12/21 10:38:19;;;;;;;;;;;11.70;89.40;;;;;;6244162;23;19926;-82
2023/12/21 10:40:48;;;;;;;;;;;11.80;89.30;;;;;;6245374;23;19933;-82
2023/12/21 10:43:16;;;;;;;;;;;12.00;88.80;;;;;;6245710;23;19910;-82
2023/12/21 10:45:43;;;;;;;;;;;12.00;88.10;;;;;;6247175;23;20251;-81
2023/12/21 10:48:11;;;;;;;;;;;12.10;87.10;;;;;;6220186;23;19904;-81
2023/12/21 10:50:37;;;;;;;;;;;12.20;86.60;;;;;;6247226;23;19899;-81
2023/12/21 10:53:04;;;;;;;;;;;12.20;86.90;;;;;;6247041;23;20310;-81
2023/12/21 10:55:30;;;;;;;;;;;12.30;86.70;;;;;;6245493;23;19907;-81
2023/12/21 10:57:56;;;;;;;;;;;12.30;86.40;;;;;;6220125;23;19954;-81
2023/12/21 11:00:22;;;;;;;;;;;12.40;86.80;;;;;;6247525;23;19903;-81
2023/12/21 11:02:48;;;;;;;;;;;12.40;86.30;;;;;;6247258;23;19923;-81
2023/12/21 11:05:19;;;;;;;;;;;12.50;86.20;;;;;;6247134;23;20385;-81
2023/12/21 11:07:53;;;;;;;;;;;12.50;85.80;;;;;;6246906;23;19911;-81
2023/12/21 11:10:21;;;;;;;;;;;12.50;85.80;;;;;;6246322;23;20372;-81
2023/12/21 11:12:47;;;;;;;;;;;12.50;85.90;;;;;;6246427;23;19904;-81
2023/12/21 11:15:17;;;;;;;;;;;12.40;86.00;;;;;;6219477;23;19904;-81
2023/12/21 11:17:48;;;;;;;;;;;12.40;86.30;;;;;;6246434;23;19907;-81
2023/12/21 11:20:16;;;;;;;;;;;12.40;86.60;;;;;;6246706;23;19903;-81
2023/12/21 11:22:43;;;;;;;;;;;12.40;87.20;;;;;;6246086;23;19939;-81
2023/12/21 11:25:12;;;;;;;;;;;12.40;87.20;;;;;;6218832;23;19926;-81
2023/12/21 11:27:41;;;;;;;;;;;12.50;87.30;;;;;;6246632;23;19917;-81
2023/12/21 11:30:10;;;;;;;;;;;12.50;87.00;;;;;;6246129;23;19974;-81
2023/12/21 11:32:42;;;;;;;;;;;12.50;86.90;;;;;;6246781;23;19907;-81
2023/12/21 11:35:21;;;;;;;;;;;12.50;87.00;;;;;;6246709;23;19907;-83
2023/12/21 11:37:51;;;;;;;;;;;12.40;87.50;;;;;;6247134;23;19936;-83
2023/12/21 11:40:18;;;;;;;;;;;12.40;87.20;;;;;;6246362;23;19938;-82
2023/12/21 11:42:45;;;;;;;;;;;12.40;87.70;;;;;;6220157;23;19907;-82
2023/12/21 11:45:11;;;;;;;;;;;12.40;87.70;;;;;;6220428;23;20226;-81
2023/12/21 11:47:37;;;;;;;;;;;12.30;87.70;;;;;;6219837;23;19923;-81
2023/12/21 11:50:09;;;;;;;;;;;12.30;88.00;;;;;;6247228;23;20302;-83
2023/12/21 11:52:35;;;;;;;;;;;12.20;88.40;;;;;;6247251;23;19982;-83
2023/12/21 11:55:02;;;;;;;;;;;12.20;88.70;;;;;;6246711;23;19925;-82
2023/12/21 11:57:28;;;;;;;;;;;12.10;89.00;;;;;;6229658;22;20384;-83
2023/12/21 12:00:13;;;;;;;;;;;12.00;89.60;;;;;;6277151;22;19903;-83
2023/12/21 12:02:39;;;;;;;;;;;12.00;90.10;;;;;;6275638;22;19953;-83
2023/12/21 12:05:05;;;;;;;;;;;11.90;90.30;;;;;;6273980;22;19899;-83
2023/12/21 12:07:34;;;;;;;;;;;11.80;90.40;;;;;;6276877;22;20336;-82
2023/12/21 12:10:00;;;;;;;;;;;11.70;90.60;;;;;;6276911;22;20305;-85
2023/12/21 12:12:25;;;;;;;;;;;11.60;90.80;;;;;;6276283;22;19978;-86
2023/12/21 12:14:52;;;;;;;;;;;11.60;90.60;;;;;;6278202;22;20367;-82
2023/12/21 12:17:17;;;;;;;;;;;11.60;90.50;;;;;;6277211;22;19926;-82
2023/12/21 12:19:43;;;;;;;;;;;11.50;90.50;;;;;;6277393;22;20616;-82
2023/12/21 12:22:08;;;;;;;;;;;11.40;90.60;;;;;;6277749;22;20297;-82
2023/12/21 12:24:34;;;;;;;;;;;11.40;90.70;;;;;;6277153;22;19899;-82
2023/12/21 12:27:00;;;;;;;;;;;11.30;90.90;;;;;;6277665;22;19974;-82
2023/12/21 12:29:29;;;;;;;;;;;11.20;91.00;;;;;;6277626;22;19985;-82
2023/12/21 12:31:54;;;;;;;;;;;11.20;91.20;;;;;;6277371;22;19926;-82
2023/12/21 12:34:20;;;;;;;;;;;11.10;91.40;;;;;;6277408;22;20367;-82
2023/12/21 12:36:51;;;;;;;;;;;11.10;91.40;;;;;;6277259;22;19931;-81
2023/12/21 12:39:17;;;;;;;;;;;11.10;91.60;;;;;;6250361;22;19953;-81
2023/12/21 12:41:43;;;;;;;;;;;11.10;91.70;;;;;;6250132;22;19903;-81
2023/12/21 12:44:08;;;;;;;;;;;11.10;91.80;;;;;;6277125;22;19910;-81
2023/12/21 12:46:34;;;;;;;;;;;11.10;91.90;;;;;;6277558;22;19910;-81
2023/12/21 12:49:00;;;;;;;;;;;11.10;92.00;;;;;;6275597;22;19899;-81
2023/12/21 12:51:25;;;;;;;;;;;11.10;92.00;;;;;;6277198;22;19899;-81
2023/12/21 12:53:52;;;;;;;;;;;11.10;92.10;;;;;;6276991;22;19907;-81
2023/12/21 12:56:17;;;;;;;;;;;11.00;92.20;;;;;;6274618;22;19957;-81
2023/12/21 12:58:43;;;;;;;;;;;11.00;92.30;;;;;;6275160;22;19911;-81
2023/12/21 13:01:08;;;;;;;;;;;11.00;92.40;;;;;;6277183;22;20205;-81
2023/12/21 13:03:35;;;;;;;;;;;11.00;92.50;;;;;;6277572;22;19914;-83
2023/12/21 13:06:00;;;;;;;;;;;11.00;92.50;;;;;;6276446;22;19899;-82
2023/12/21 13:08:27;;;;;;;;;;;11.00;92.50;;;;;;6276951;22;20186;-81
2023/12/21 13:10:52;;;;;;;;;;;11.00;92.60;;;;;;6277226;22;19903;-81
2023/12/21 13:13:18;;;;;;;;;;;11.00;92.70;;;;;;6276802;22;19909;-81
2023/12/21 13:15:44;;;;;;;;;;;10.90;92.80;;;;;;6276700;22;20310;-81
2023/12/21 13:18:09;;;;;;;;;;;10.90;92.80;;;;;;6276021;22;20264;-82
2023/12/21 13:20:35;;;;;;;;;;;10.90;92.90;;;;;;6275110;22;19973;-82
2023/12/21 13:23:02;;;;;;;;;;;10.90;93.00;;;;;;6276550;22;19906;-83
2023/12/21 13:25:27;;;;;;;;;;;10.90;92.90;;;;;;6249708;22;19899;-82
2023/12/21 13:27:53;;;;;;;;;;;10.90;93.00;;;;;;6276839;22;20202;-82
2023/12/21 13:30:20;;;;;;;;;;;10.90;93.10;;;;;;6276777;22;19907;-81
2023/12/21 13:32:45;;;;;;;;;;;10.90;93.10;;;;;;6276053;22;19903;-81
2023/12/21 13:35:11;;;;;;;;;;;11.00;93.20;;;;;;6276691;22;19906;-81
2023/12/21 13:37:37;;;;;;;;;;;11.00;93.10;;;;;;6245372;22;19914;-82
2023/12/21 13:40:03;;;;;;;;;;;11.00;93.10;;;;;;6274338;22;19903;-84
2023/12/21 13:42:29;;;;;;;;;;;11.00;93.10;;;;;;6275296;22;19923;-83
2023/12/21 13:44:54;;;;;;;;;;;11.00;93.20;;;;;;6275359;22;19906;-82
2023/12/21 13:47:20;;;;;;;;;;;11.00;93.10;;;;;;6275494;22;19982;-82
2023/12/21 13:49:45;;;;;;;;;;;10.90;93.10;;;;;;6238064;22;20362;-80
2023/12/21 13:52:11;;;;;;;;;;;11.00;93.10;;;;;;6245046;23;20328;-80
2023/12/21 13:54:38;;;;;;;;;;;10.90;93.10;;;;;;6245296;23;19904;-81
2023/12/21 13:57:04;;;;;;;;;;;10.90;93.10;;;;;;6243743;23;19907;-80
2023/12/21 13:59:29;;;;;;;;;;;10.90;93.20;;;;;;6244871;23;19903;-80
2023/12/21 14:01:55;;;;;;;;;;;10.90;93.20;;;;;;6245067;23;19926;-80
2023/12/21 14:04:20;;;;;;;;;;;10.90;93.20;;;;;;6218180;23;20327;-80
2023/12/21 14:06:46;;;;;;;;;;;10.80;93.20;;;;;;6218168;23;19982;-80
2023/12/21 14:09:12;;;;;;;;;;;10.90;93.20;;;;;;6245011;23;19906;-80
2023/12/21 14:11:38;;;;;;;;;;;10.80;93.20;;;;;;6244592;23;19903;-80
2023/12/21 14:14:05;;;;;;;;;;;10.80;93.10;;;;;;6243593;23;19906;-80
2023/12/21 14:16:31;;;;;;;;;;;10.70;93.10;;;;;;6218266;23;19938;-80
2023/12/21 14:18:56;;;;;;;;;;;10.70;93.20;;;;;;6241650;23;19903;-80